Time;durP1;ratioP1;P1;durP2;ratioP2;P2;SDS_P1;SDS_P2;PMS_P1;PMS_P2;Temp;Humidity;BMP_temperature;BMP_pressure;BME280_temperature;BME280_humidity;BME280_pressure;Samples;Min_cycle;Max_cycle;Signal;HPM_P1;HPM_P2
2022/01/25 00:15:06;;;;;;;804.10;368.27;;;;;;;;;;5067073;28;20043;-73
2022/01/25 00:32:10;;;;;;;801.92;375.10;;;;;;;;;;5070129;28;20387;-73
2022/01/25 00:34:35;;;;;;;803.70;370.13;;;;;;;;;;5068506;28;20028;-73
2022/01/25 00:37:02;;;;;;;810.00;380.92;;;;;;;;;;5048366;28;20033;-73
2022/01/25 00:39:27;;;;;;;805.85;375.70;;;;;;;;;;5049678;28;20036;-73
2022/01/25 00:41:57;;;;;;;808.58;377.17;;;;;;;;;;5052279;28;20028;-73
2022/01/25 00:44:23;;;;;;;805.30;370.35;;;;;;;;;;5067731;28;20025;-73
2022/01/25 00:46:49;;;;;;;805.40;381.30;;;;;;;;;;5064271;28;20044;-73
2022/01/25 00:49:25;;;;;;;802.85;373.27;;;;;;;;;;5067952;28;20035;-73
2022/01/25 00:54:28;;;;;;;806.33;382.95;;;;;;;;;;5069908;28;20115;-73
2022/01/25 00:56:55;;;;;;;803.08;374.23;;;;;;;;;;5067425;28;20032;-74
2022/01/25 00:59:23;;;;;;;803.78;372.10;;;;;;;;;;5066782;28;20443;-73
2022/01/25 01:01:51;;;;;;;805.72;377.15;;;;;;;;;;5065815;28;20028;-73
2022/01/25 01:04:18;;;;;;;809.03;376.85;;;;;;;;;;5061248;28;20403;-73
2022/01/25 01:06:45;;;;;;;806.20;378.10;;;;;;;;;;5061396;28;20032;-73
2022/01/25 01:09:12;;;;;;;804.40;376.45;;;;;;;;;;5064173;28;20083;-73
2022/01/25 01:11:45;;;;;;;803.10;374.60;;;;;;;;;;5057640;28;20123;-73
2022/01/25 01:14:23;;;;;;;805.00;372.35;;;;;;;;;;5053767;28;20044;-73
2022/01/25 01:38:45;;;;;;;808.03;378.88;;;;;;;;;;5051171;28;20083;-73
2022/01/25 01:43:37;;;;;;;806.20;372.63;;;;;;;;;;5056985;28;20116;-73
2022/01/25 01:48:48;;;;;;;804.45;372.85;;;;;;;;;;5050693;28;20526;-73
2022/01/25 01:51:18;;;;;;;805.90;370.67;;;;;;;;;;5064125;28;20032;-73
2022/01/25 01:53:44;;;;;;;808.30;378.10;;;;;;;;;;5044017;28;20404;-73
2022/01/25 01:56:11;;;;;;;809.72;381.98;;;;;;;;;;5060810;28;20038;-73
2022/01/25 01:58:39;;;;;;;808.05;382.17;;;;;;;;;;5044473;28;20552;-73
2022/01/25 02:01:07;;;;;;;807.60;378.02;;;;;;;;;;5033008;28;20393;-73
2022/01/25 02:03:33;;;;;;;804.70;377.65;;;;;;;;;;5057004;28;20098;-73
2022/01/25 02:05:59;;;;;;;807.22;375.90;;;;;;;;;;5060483;28;20044;-73
2022/01/25 02:08:25;;;;;;;805.22;375.35;;;;;;;;;;5045388;28;20037;-73
2022/01/25 02:10:51;;;;;;;805.45;372.20;;;;;;;;;;5042352;28;20106;-73
2022/01/25 02:13:17;;;;;;;811.47;376.35;;;;;;;;;;5061849;28;20882;-73
2022/01/25 02:15:47;;;;;;;806.08;374.88;;;;;;;;;;5061049;28;20037;-73
2022/01/25 02:23:44;;;;;;;803.47;368.27;;;;;;;;;;5054648;28;20186;-72
2022/01/25 02:26:11;;;;;;;801.72;370.80;;;;;;;;;;5059971;28;20029;-73
2022/01/25 02:28:39;;;;;;;806.90;366.83;;;;;;;;;;5060417;28;20033;-73
2022/01/25 02:31:05;;;;;;;804.33;369.77;;;;;;;;;;5037096;28;20802;-73
2022/01/25 02:33:31;;;;;;;804.42;369.58;;;;;;;;;;5060783;28;20037;-73
2022/01/25 02:35:59;;;;;;;805.30;374.30;;;;;;;;;;5060061;28;20047;-73
2022/01/25 02:38:26;;;;;;;805.50;379.20;;;;;;;;;;5039070;28;20024;-73
2022/01/25 02:40:52;;;;;;;803.30;373.73;;;;;;;;;;5041171;28;20025;-73
2022/01/25 02:43:20;;;;;;;803.75;375.27;;;;;;;;;;5060724;28;20388;-73
2022/01/25 02:48:47;;;;;;;798.53;360.42;;;;;;;;;;5055929;28;20048;-73
2022/01/25 02:51:13;;;;;;;801.95;368.40;;;;;;;;;;5037129;28;20116;-73
2022/01/25 02:53:39;;;;;;;799.92;364.13;;;;;;;;;;5059850;28;20111;-73
2022/01/25 02:56:05;;;;;;;807.28;377.80;;;;;;;;;;5061869;28;20036;-73
2022/01/25 02:58:31;;;;;;;802.75;375.15;;;;;;;;;;5060145;28;20057;-73
2022/01/25 03:00:57;;;;;;;807.90;375.42;;;;;;;;;;5066359;28;20526;-73
2022/01/25 03:03:23;;;;;;;805.22;374.35;;;;;;;;;;5046197;28;20530;-73
2022/01/25 03:05:48;;;;;;;805.92;371.60;;;;;;;;;;5065575;28;20115;-73
2022/01/25 03:08:15;;;;;;;806.47;381.23;;;;;;;;;;5048299;28;20484;-73
2022/01/25 03:10:44;;;;;;;804.17;372.25;;;;;;;;;;5063107;28;20032;-73
2022/01/25 03:13:16;;;;;;;805.72;373.95;;;;;;;;;;5046416;28;20395;-73
2022/01/25 03:18:37;;;;;;;804.03;376.17;;;;;;;;;;5061524;28;20079;-72
2022/01/25 03:21:16;;;;;;;803.67;373.42;;;;;;;;;;5064759;28;20074;-73
2022/01/25 03:23:42;;;;;;;801.75;359.42;;;;;;;;;;5046107;28;20047;-73
2022/01/25 03:26:08;;;;;;;801.45;372.25;;;;;;;;;;5067564;28;20186;-73
2022/01/25 03:28:34;;;;;;;810.80;368.00;;;;;;;;;;5065430;28;20090;-73
2022/01/25 03:31:00;;;;;;;801.92;367.63;;;;;;;;;;5045241;28;20045;-73
2022/01/25 03:33:26;;;;;;;803.30;373.38;;;;;;;;;;5047244;28;20044;-73
2022/01/25 03:35:53;;;;;;;802.85;375.75;;;;;;;;;;5065495;28;20071;-73
2022/01/25 03:38:19;;;;;;;810.03;382.00;;;;;;;;;;5065714;28;20075;-73
2022/01/25 03:40:45;;;;;;;806.40;379.33;;;;;;;;;;5061394;28;20025;-73
2022/01/25 03:43:14;;;;;;;805.47;376.15;;;;;;;;;;5046301;28;20031;-73
2022/01/25 03:45:43;;;;;;;801.08;363.30;;;;;;;;;;5046606;28;20111;-73
2022/01/25 03:50:39;;;;;;;804.10;363.58;;;;;;;;;;5066071;28;20503;-73
2022/01/25 03:53:05;;;;;;;802.47;367.40;;;;;;;;;;5063916;28;20153;-73
2022/01/25 03:55:31;;;;;;;805.03;370.02;;;;;;;;;;5046844;28;20380;-73
2022/01/25 03:57:57;;;;;;;799.50;359.02;;;;;;;;;;5064702;28;20468;-73
2022/01/25 04:00:23;;;;;;;807.58;372.88;;;;;;;;;;5066107;28;20082;-73
2022/01/25 04:02:55;;;;;;;804.97;376.30;;;;;;;;;;5060134;28;20089;-73
2022/01/25 04:05:33;;;;;;;799.95;356.42;;;;;;;;;;5036480;28;20111;-73
2022/01/25 04:07:59;;;;;;;804.53;369.60;;;;;;;;;;5048878;28;20034;-73
2022/01/25 04:10:24;;;;;;;802.90;373.30;;;;;;;;;;5054152;28;20571;-73
2022/01/25 04:12:50;;;;;;;800.92;364.58;;;;;;;;;;5062519;28;20451;-73
2022/01/25 04:15:17;;;;;;;806.35;371.90;;;;;;;;;;5044011;28;20510;-73
2022/01/25 04:17:47;;;;;;;807.42;375.42;;;;;;;;;;5046287;28;20032;-73
2022/01/25 04:20:27;;;;;;;807.72;372.50;;;;;;;;;;5046671;28;20025;-73
2022/01/25 04:25:37;;;;;;;802.92;370.27;;;;;;;;;;5062231;28;20078;-73
2022/01/25 04:28:03;;;;;;;803.97;376.58;;;;;;;;;;5066006;28;20498;-72
2022/01/25 04:30:29;;;;;;;802.17;361.08;;;;;;;;;;5064754;28;20070;-73
2022/01/25 04:35:45;;;;;;;805.25;376.30;;;;;;;;;;5062434;28;20127;-73
2022/01/25 04:49:18;;;;;;;804.03;370.60;;;;;;;;;;5063782;28;20055;-73
2022/01/25 04:59:25;;;;;;;803.97;366.75;;;;;;;;;;5054633;28;20032;-73
2022/01/25 05:01:55;;;;;;;796.55;354.13;;;;;;;;;;5063863;28;20048;-73
2022/01/25 05:04:30;;;;;;;801.50;362.20;;;;;;;;;;5062071;28;20042;-72
2022/01/25 05:07:05;;;;;;;800.47;361.50;;;;;;;;;;5059230;28;20052;-72
2022/01/25 05:09:33;;;;;;;802.55;369.13;;;;;;;;;;5060927;28;20029;-73
2022/01/25 05:11:59;;;;;;;801.90;369.63;;;;;;;;;;5066032;28;20483;-73
2022/01/25 05:14:32;;;;;;;803.90;372.35;;;;;;;;;;5062415;28;20442;-73
2022/01/25 05:17:01;;;;;;;806.30;374.27;;;;;;;;;;5065274;28;20029;-73
2022/01/25 05:24:44;;;;;;;802.20;367.77;;;;;;;;;;5056886;28;20043;-73
2022/01/25 05:27:12;;;;;;;803.20;368.00;;;;;;;;;;5046065;28;20025;-72
2022/01/25 05:29:38;;;;;;;800.20;368.10;;;;;;;;;;5043574;28;20113;-73
2022/01/25 05:32:04;;;;;;;801.85;368.30;;;;;;;;;;5057241;28;20234;-72
2022/01/25 05:34:31;;;;;;;795.97;371.88;;;;;;;;;;5039597;28;20064;-72
2022/01/25 05:36:57;;;;;;;805.85;375.73;;;;;;;;;;5062112;28;20093;-73
2022/01/25 05:39:34;;;;;;;802.08;375.30;;;;;;;;;;5052752;28;20082;-73
2022/01/25 05:43:50;;;;;;;803.85;368.00;;;;;;;;;;5055935;28;20031;-73
2022/01/25 05:47:20;;;;;;;805.03;369.63;;;;;;;;;;5061959;28;20050;-72
2022/01/25 05:49:46;;;;;;;802.65;373.83;;;;;;;;;;5044494;28;20032;-73
2022/01/25 05:52:13;;;;;;;800.97;366.90;;;;;;;;;;5063431;28;20032;-73
2022/01/25 05:54:39;;;;;;;804.47;370.30;;;;;;;;;;5064382;28;20493;-73
2022/01/25 05:57:06;;;;;;;802.20;371.73;;;;;;;;;;5062796;28;20033;-73
2022/01/25 05:59:32;;;;;;;804.95;376.48;;;;;;;;;;5061956;28;20079;-73
2022/01/25 06:01:58;;;;;;;801.97;371.67;;;;;;;;;;5060122;28;20222;-73
2022/01/25 06:04:25;;;;;;;803.80;375.77;;;;;;;;;;5063113;28;20024;-73
2022/01/25 06:06:51;;;;;;;805.50;371.52;;;;;;;;;;5060749;28;20032;-73
2022/01/25 06:09:17;;;;;;;802.90;370.75;;;;;;;;;;5043401;28;20508;-73
2022/01/25 06:11:44;;;;;;;803.20;374.27;;;;;;;;;;5061361;28;20032;-73
2022/01/25 06:14:10;;;;;;;803.10;373.02;;;;;;;;;;5043930;28;20053;-73
2022/01/25 06:16:36;;;;;;;797.95;358.10;;;;;;;;;;5061209;28;20138;-73
2022/01/25 06:19:02;;;;;;;801.63;365.13;;;;;;;;;;5043006;28;20020;-72
2022/01/25 06:21:28;;;;;;;799.70;363.80;;;;;;;;;;5061523;28;20028;-73
2022/01/25 06:23:55;;;;;;;799.17;365.75;;;;;;;;;;5062907;28;20519;-73
2022/01/25 06:26:21;;;;;;;801.58;366.08;;;;;;;;;;5063852;28;20074;-72
2022/01/25 06:28:47;;;;;;;802.83;368.48;;;;;;;;;;5052873;28;20037;-72
2022/01/25 06:31:15;;;;;;;804.50;369.83;;;;;;;;;;5062316;28;20048;-73
2022/01/25 06:33:42;;;;;;;800.80;362.80;;;;;;;;;;5061788;28;20078;-73
2022/01/25 06:36:09;;;;;;;800.33;368.05;;;;;;;;;;5062652;28;20035;-73
2022/01/25 06:38:35;;;;;;;799.42;363.63;;;;;;;;;;5041547;28;20032;-72
2022/01/25 06:41:01;;;;;;;800.15;363.40;;;;;;;;;;5057838;28;20025;-72
2022/01/25 06:43:27;;;;;;;807.60;370.02;;;;;;;;;;5042159;28;20027;-73
2022/01/25 06:46:01;;;;;;;801.65;366.98;;;;;;;;;;5063401;28;20032;-73
2022/01/25 06:48:27;;;;;;;800.90;361.23;;;;;;;;;;5042095;28;20047;-73
2022/01/25 06:50:53;;;;;;;802.92;369.48;;;;;;;;;;5061171;28;20035;-73
2022/01/25 06:53:19;;;;;;;801.97;368.77;;;;;;;;;;5061174;28;20357;-73
2022/01/25 06:55:45;;;;;;;806.50;373.55;;;;;;;;;;5060623;28;20035;-73
2022/01/25 06:58:11;;;;;;;799.97;360.15;;;;;;;;;;5063981;28;20399;-73
2022/01/25 07:00:37;;;;;;;801.65;364.02;;;;;;;;;;5061579;28;20073;-73
2022/01/25 07:03:04;;;;;;;805.13;369.17;;;;;;;;;;5060749;28;20709;-72
2022/01/25 07:05:30;;;;;;;802.63;371.80;;;;;;;;;;5043177;28;20024;-73
2022/01/25 07:07:56;;;;;;;804.22;377.77;;;;;;;;;;5033354;28;20040;-73
2022/01/25 07:10:22;;;;;;;803.20;378.00;;;;;;;;;;5027433;28;20034;-73
2022/01/25 07:12:48;;;;;;;799.75;364.83;;;;;;;;;;5061433;28;20041;-73
2022/01/25 07:15:14;;;;;;;813.55;380.65;;;;;;;;;;5062755;28;20043;-72
2022/01/25 07:17:41;;;;;;;802.30;369.58;;;;;;;;;;5058816;28;20060;-73
2022/01/25 07:20:08;;;;;;;804.08;368.52;;;;;;;;;;5061700;28;20031;-73
2022/01/25 07:22:35;;;;;;;806.55;368.48;;;;;;;;;;5038778;28;20367;-73
2022/01/25 07:25:02;;;;;;;796.92;361.45;;;;;;;;;;5062531;28;20037;-72
2022/01/25 07:27:28;;;;;;;818.65;359.33;;;;;;;;;;5040990;28;20512;-73
2022/01/25 07:29:53;;;;;;;796.92;359.92;;;;;;;;;;5028675;28;20025;-73
2022/01/25 07:32:19;;;;;;;798.30;354.63;;;;;;;;;;5060038;28;20040;-73
2022/01/25 07:34:45;;;;;;;799.28;358.35;;;;;;;;;;5042959;28;20039;-73
2022/01/25 07:37:11;;;;;;;798.83;356.50;;;;;;;;;;5058637;28;20037;-73
2022/01/25 07:39:37;;;;;;;800.70;362.25;;;;;;;;;;5054704;28;20035;-72
2022/01/25 07:42:04;;;;;;;800.47;359.17;;;;;;;;;;5061517;28;20373;-72
2022/01/25 07:44:32;;;;;;;799.28;358.25;;;;;;;;;;5065550;28;20074;-73
2022/01/25 07:47:00;;;;;;;799.00;359.55;;;;;;;;;;5069486;28;20032;-72
2022/01/25 07:49:27;;;;;;;799.15;361.98;;;;;;;;;;5069485;28;20030;-72
2022/01/25 07:51:53;;;;;;;804.13;363.30;;;;;;;;;;5066766;28;20460;-73
2022/01/25 07:54:19;;;;;;;803.65;366.00;;;;;;;;;;5067112;28;20519;-72
2022/01/25 07:56:45;;;;;;;799.05;364.83;;;;;;;;;;5061600;28;20032;-73
2022/01/25 07:59:15;;;;;;;796.70;361.27;;;;;;;;;;5050783;28;20530;-72
2022/01/25 08:01:41;;;;;;;802.53;366.10;;;;;;;;;;5067914;28;20619;-72
2022/01/25 08:04:09;;;;;;;803.00;365.98;;;;;;;;;;5065118;28;20286;-72
2022/01/25 08:06:35;;;;;;;803.47;370.73;;;;;;;;;;5045942;28;20570;-73
2022/01/25 08:09:01;;;;;;;800.95;368.65;;;;;;;;;;5078626;28;20063;-73
2022/01/25 08:11:28;;;;;;;803.22;370.60;;;;;;;;;;5048277;28;20551;-73
2022/01/25 08:14:00;;;;;;;797.60;362.08;;;;;;;;;;5066955;28;20045;-73
2022/01/25 08:16:26;;;;;;;798.17;361.88;;;;;;;;;;5065956;28;20031;-73
2022/01/25 08:18:52;;;;;;;800.03;368.45;;;;;;;;;;5039885;28;20105;-73
2022/01/25 08:21:18;;;;;;;798.13;362.45;;;;;;;;;;5067172;28;20637;-73
2022/01/25 08:23:44;;;;;;;797.88;354.27;;;;;;;;;;5066056;28;20036;-73
2022/01/25 08:26:10;;;;;;;799.28;359.27;;;;;;;;;;5067762;28;20112;-73
2022/01/25 08:28:36;;;;;;;798.33;357.48;;;;;;;;;;5043072;28;20128;-73
2022/01/25 08:31:02;;;;;;;798.45;363.20;;;;;;;;;;5035947;28;20037;-73
2022/01/25 08:33:29;;;;;;;797.50;361.77;;;;;;;;;;5067975;28;20063;-74
2022/01/25 08:35:55;;;;;;;798.80;357.92;;;;;;;;;;5062842;28;20060;-73
2022/01/25 08:38:21;;;;;;;797.13;357.77;;;;;;;;;;5033599;28;20079;-74
2022/01/25 08:40:47;;;;;;;800.80;364.55;;;;;;;;;;5041322;28;20432;-72
2022/01/25 08:43:13;;;;;;;800.90;366.85;;;;;;;;;;5062702;28;20236;-73
2022/01/25 08:45:39;;;;;;;799.70;365.35;;;;;;;;;;5061348;28;20028;-73
2022/01/25 08:48:05;;;;;;;801.40;367.63;;;;;;;;;;5041800;28;20523;-73
2022/01/25 08:50:31;;;;;;;801.08;369.55;;;;;;;;;;5064088;28;20565;-73
2022/01/25 08:52:57;;;;;;;793.15;352.27;;;;;;;;;;5061431;28;20036;-73
2022/01/25 08:55:43;;;;;;;799.30;365.48;;;;;;;;;;5067823;28;20035;-73
2022/01/25 08:58:09;;;;;;;792.47;351.38;;;;;;;;;;5067767;28;20067;-73
2022/01/25 09:00:35;;;;;;;799.38;361.00;;;;;;;;;;5060772;28;20050;-73
2022/01/25 09:03:03;;;;;;;799.35;362.63;;;;;;;;;;5051144;28;20131;-73
2022/01/25 09:05:29;;;;;;;798.08;361.73;;;;;;;;;;5064156;28;20032;-73
2022/01/25 09:07:57;;;;;;;801.83;370.80;;;;;;;;;;5065955;28;20376;-73
2022/01/25 09:10:23;;;;;;;799.85;366.73;;;;;;;;;;5066683;28;20059;-73
2022/01/25 09:12:49;;;;;;;797.85;366.27;;;;;;;;;;5067843;28;20091;-73
2022/01/25 09:15:15;;;;;;;797.83;360.25;;;;;;;;;;5046520;28;20032;-73
2022/01/25 09:17:40;;;;;;;801.58;369.00;;;;;;;;;;5064236;28;20029;-73
2022/01/25 09:20:07;;;;;;;798.38;368.15;;;;;;;;;;5047619;28;20086;-73
2022/01/25 09:22:34;;;;;;;797.38;362.17;;;;;;;;;;5061866;28;20025;-73
2022/01/25 09:25:00;;;;;;;795.47;362.30;;;;;;;;;;5064771;28;20083;-74
2022/01/25 09:27:26;;;;;;;799.65;366.65;;;;;;;;;;5070424;28;20025;-73
2022/01/25 09:29:52;;;;;;;796.83;360.05;;;;;;;;;;5068726;28;20036;-73
2022/01/25 09:32:19;;;;;;;795.17;359.20;;;;;;;;;;5066563;28;20027;-73
2022/01/25 09:34:45;;;;;;;792.53;355.90;;;;;;;;;;5068640;28;20039;-73
2022/01/25 09:37:11;;;;;;;791.70;349.08;;;;;;;;;;5069180;28;20028;-73
2022/01/25 09:39:37;;;;;;;795.47;357.25;;;;;;;;;;5065847;28;20219;-73
2022/01/25 09:42:08;;;;;;;797.00;360.00;;;;;;;;;;5052594;28;20082;-74
2022/01/25 09:44:33;;;;;;;;;;;;;;;;;;5052082;28;20031;-73
2022/01/25 09:46:59;;;;;;;792.50;337.35;;;;;;;;;;5069337;28;20255;-72
2022/01/25 09:49:25;;;;;;;798.20;350.40;;;;;;;;;;5066354;28;20025;-72
2022/01/25 09:51:53;;;;;;;797.90;358.25;;;;;;;;;;5067031;28;20033;-73
2022/01/25 09:54:19;;;;;;;796.47;351.52;;;;;;;;;;5065403;28;20036;-73
2022/01/25 09:56:45;;;;;;;804.80;371.05;;;;;;;;;;5064873;28;20130;-73
2022/01/25 09:59:11;;;;;;;802.55;369.58;;;;;;;;;;5062554;28;20052;-73
2022/01/25 10:01:37;;;;;;;799.05;362.67;;;;;;;;;;5051551;28;20423;-73
2022/01/25 10:04:05;;;;;;;802.33;368.38;;;;;;;;;;5062565;28;20123;-73
2022/01/25 10:06:34;;;;;;;799.35;361.60;;;;;;;;;;5062733;28;20365;-73
2022/01/25 10:09:00;;;;;;;800.97;361.63;;;;;;;;;;5065983;28;20399;-73
2022/01/25 10:11:26;;;;;;;800.90;369.52;;;;;;;;;;5062806;28;20142;-73
2022/01/25 10:13:56;;;;;;;800.78;364.00;;;;;;;;;;5062115;28;20150;-73
2022/01/25 10:16:35;;;;;;;796.33;357.48;;;;;;;;;;5064489;28;20174;-73
2022/01/25 10:19:03;;;;;;;800.42;365.60;;;;;;;;;;5063884;28;20484;-73
2022/01/25 10:21:29;;;;;;;800.80;368.45;;;;;;;;;;5031727;28;20507;-73
2022/01/25 10:24:00;;;;;;;803.38;365.60;;;;;;;;;;5055160;28;20048;-74
2022/01/25 10:26:26;;;;;;;800.70;370.95;;;;;;;;;;5059722;28;20529;-73
2022/01/25 10:28:54;;;;;;;803.33;374.98;;;;;;;;;;5062670;28;20510;-73
2022/01/25 10:31:19;;;;;;;800.38;371.60;;;;;;;;;;5046130;28;20463;-73
2022/01/25 10:33:53;;;;;;;801.05;372.48;;;;;;;;;;5065007;28;20035;-73
2022/01/25 10:36:21;;;;;;;798.80;368.23;;;;;;;;;;5059448;28;20618;-72
2022/01/25 10:38:48;;;;;;;802.15;371.30;;;;;;;;;;5038427;28;20019;-73
2022/01/25 10:41:18;;;;;;;801.55;370.38;;;;;;;;;;5058715;28;20048;-73
2022/01/25 10:43:46;;;;;;;798.22;366.88;;;;;;;;;;5058388;28;20024;-72
2022/01/25 10:46:14;;;;;;;803.20;377.45;;;;;;;;;;5058436;28;20052;-72
2022/01/25 10:48:41;;;;;;;809.60;377.58;;;;;;;;;;5062237;28;20036;-73
2022/01/25 10:51:12;;;;;;;800.88;368.48;;;;;;;;;;5041896;28;20028;-72
2022/01/25 10:53:39;;;;;;;803.92;371.40;;;;;;;;;;5045004;28;20482;-73
2022/01/25 10:56:05;;;;;;;802.90;376.33;;;;;;;;;;5060249;28;20020;-73
2022/01/25 10:58:35;;;;;;;803.58;379.48;;;;;;;;;;5042518;28;20542;-72
2022/01/25 11:01:01;;;;;;;805.03;372.80;;;;;;;;;;5054872;28;20032;-72
2022/01/25 11:03:29;;;;;;;801.05;373.48;;;;;;;;;;5061015;28;20023;-72
2022/01/25 11:05:56;;;;;;;802.13;375.02;;;;;;;;;;5060024;28;20009;-74
2022/01/25 11:08:24;;;;;;;804.85;378.75;;;;;;;;;;5056728;28;20476;-72
2022/01/25 11:10:55;;;;;;;808.25;377.27;;;;;;;;;;5052945;28;20028;-73
2022/01/25 11:15:56;;;;;;;802.88;376.00;;;;;;;;;;5060527;28;20035;-72
2022/01/25 11:18:23;;;;;;;805.67;374.83;;;;;;;;;;5038930;28;20028;-72
2022/01/25 11:20:50;;;;;;;806.92;378.70;;;;;;;;;;5056200;28;20028;-72
2022/01/25 11:23:16;;;;;;;802.53;379.20;;;;;;;;;;5060659;28;20028;-72
2022/01/25 11:25:43;;;;;;;805.17;373.30;;;;;;;;;;5040972;28;20036;-72
2022/01/25 11:28:09;;;;;;;804.10;374.42;;;;;;;;;;5062623;28;23074;-72
2022/01/25 11:30:38;;;;;;;801.58;369.65;;;;;;;;;;5068517;28;20032;-72
2022/01/25 11:33:05;;;;;;;803.92;377.83;;;;;;;;;;5062810;28;20035;-72
2022/01/25 11:35:31;;;;;;;803.55;375.10;;;;;;;;;;5056455;28;20024;-72
2022/01/25 11:37:57;;;;;;;802.72;372.00;;;;;;;;;;5044884;28;20463;-72
2022/01/25 11:40:26;;;;;;;803.42;370.25;;;;;;;;;;5045100;28;20033;-72
2022/01/25 11:42:54;;;;;;;805.35;378.20;;;;;;;;;;5060698;28;20036;-72
2022/01/25 11:45:24;;;;;;;806.28;380.88;;;;;;;;;;5041049;28;20503;-72
2022/01/25 11:47:51;;;;;;;809.33;373.10;;;;;;;;;;5062175;28;20340;-72
2022/01/25 11:50:17;;;;;;;806.50;374.80;;;;;;;;;;5046410;28;20032;-72
2022/01/25 11:52:54;;;;;;;797.47;369.50;;;;;;;;;;5035921;28;20041;-72
2022/01/25 11:55:23;;;;;;;803.45;366.80;;;;;;;;;;5064031;28;20529;-72
2022/01/25 11:57:49;;;;;;;806.28;370.77;;;;;;;;;;5062067;28;20384;-72
2022/01/25 12:00:15;;;;;;;807.78;379.67;;;;;;;;;;5039852;28;20032;-73
2022/01/25 12:03:01;;;;;;;798.05;368.55;;;;;;;;;;5046010;28;20051;-73
2022/01/25 12:05:28;;;;;;;799.88;358.30;;;;;;;;;;5062217;28;20078;-73
2022/01/25 12:08:06;;;;;;;798.58;365.40;;;;;;;;;;5062691;28;20377;-72
2022/01/25 12:10:35;;;;;;;801.67;368.27;;;;;;;;;;5039780;28;20028;-72
2022/01/25 12:13:11;;;;;;;798.90;365.65;;;;;;;;;;5061624;28;20448;-72
2022/01/25 12:15:37;;;;;;;799.33;362.08;;;;;;;;;;5063077;28;20176;-73
2022/01/25 12:18:03;;;;;;;796.03;361.23;;;;;;;;;;5061200;28;20028;-71
2022/01/25 12:20:29;;;;;;;803.65;377.13;;;;;;;;;;5061107;28;20036;-72
2022/01/25 12:23:05;;;;;;;801.97;369.42;;;;;;;;;;5039660;28;20025;-73
2022/01/25 12:25:49;;;;;;;802.58;365.67;;;;;;;;;;5044275;28;20028;-73
2022/01/25 12:28:24;;;;;;;799.42;363.05;;;;;;;;;;5056350;28;20024;-72
2022/01/25 12:30:51;;;;;;;800.67;370.38;;;;;;;;;;5037088;28;20039;-73
2022/01/25 12:33:20;;;;;;;801.78;368.70;;;;;;;;;;5057766;28;20398;-73
2022/01/25 12:36:07;;;;;;;798.45;362.08;;;;;;;;;;5061684;28;20058;-73
2022/01/25 12:38:43;;;;;;;804.92;369.33;;;;;;;;;;5061126;28;20085;-73
2022/01/25 12:41:09;;;;;;;801.10;362.63;;;;;;;;;;5058758;28;20749;-73
2022/01/25 12:43:35;;;;;;;805.85;375.33;;;;;;;;;;5063624;28;20051;-73
2022/01/25 12:46:11;;;;;;;799.22;370.80;;;;;;;;;;5055414;28;20376;-73
2022/01/25 12:48:40;;;;;;;805.25;369.40;;;;;;;;;;5065926;28;20059;-74
2022/01/25 12:51:08;;;;;;;798.55;367.45;;;;;;;;;;5057832;28;20271;-73
2022/01/25 12:53:35;;;;;;;800.72;368.15;;;;;;;;;;5059681;28;20021;-73
2022/01/25 12:56:05;;;;;;;802.35;371.15;;;;;;;;;;5060530;28;20090;-73
2022/01/25 12:58:32;;;;;;;795.97;357.98;;;;;;;;;;5064286;28;20468;-73
2022/01/25 13:00:59;;;;;;;796.90;356.00;;;;;;;;;;5064783;28;20033;-73
2022/01/25 13:03:30;;;;;;;799.03;361.50;;;;;;;;;;5046986;28;20027;-72
2022/01/25 13:05:56;;;;;;;814.78;353.27;;;;;;;;;;5042800;28;20120;-72
2022/01/25 13:08:28;;;;;;;796.00;359.33;;;;;;;;;;5063147;28;20108;-73
2022/01/25 13:11:13;;;;;;;793.83;350.45;;;;;;;;;;5045238;28;20035;-73
2022/01/25 13:13:58;;;;;;;797.90;360.02;;;;;;;;;;5045331;28;20647;-72
2022/01/25 13:16:39;;;;;;;793.60;354.17;;;;;;;;;;5064084;28;20025;-73
2022/01/25 13:19:05;;;;;;;790.78;348.23;;;;;;;;;;5040953;28;20342;-73
2022/01/25 13:21:39;;;;;;;807.83;359.58;;;;;;;;;;5054265;28;20029;-73
2022/01/25 13:24:09;;;;;;;790.72;348.92;;;;;;;;;;5061423;28;20359;-72
2022/01/25 13:26:39;;;;;;;792.97;348.27;;;;;;;;;;5058485;28;20025;-73
2022/01/25 13:30:39;;;;;;;;;;;;;;;;;;5059829;28;20405;-74
2022/01/25 13:32:09;;;;;;;788.38;328.45;;;;;;;;;;5063742;28;19955;-73
2022/01/25 13:34:36;;;;;;;791.13;340.15;;;;;;;;;;5067205;28;20079;-72
2022/01/25 13:37:02;;;;;;;792.67;347.10;;;;;;;;;;5065299;28;20036;-74
2022/01/25 13:39:29;;;;;;;788.20;346.80;;;;;;;;;;5063114;28;20032;-74
2022/01/25 13:42:03;;;;;;;791.70;349.30;;;;;;;;;;5065271;28;20013;-74
2022/01/25 13:47:30;;;;;;;794.38;346.40;;;;;;;;;;4998913;28;20181;-75
2022/01/25 13:49:56;;;;;;;814.42;355.13;;;;;;;;;;5052582;28;20120;-75
2022/01/25 13:52:22;;;;;;;799.63;358.23;;;;;;;;;;5042480;28;20029;-75
2022/01/25 13:54:48;;;;;;;797.45;353.25;;;;;;;;;;5042907;28;20025;-75
2022/01/25 13:57:14;;;;;;;800.90;367.85;;;;;;;;;;5065606;28;20075;-75
2022/01/25 13:59:41;;;;;;;794.47;353.70;;;;;;;;;;5043007;28;20086;-75
2022/01/25 14:02:07;;;;;;;793.95;353.13;;;;;;;;;;5038211;28;20476;-75
2022/01/25 14:04:37;;;;;;;793.03;347.38;;;;;;;;;;5062766;28;20040;-74
2022/01/25 14:07:03;;;;;;;798.42;355.73;;;;;;;;;;5063163;28;20028;-75
2022/01/25 14:09:36;;;;;;;795.47;357.48;;;;;;;;;;5060438;28;20033;-76
2022/01/25 14:25:41;;;;;;;794.17;343.50;;;;;;;;;;5064088;28;20571;-76
2022/01/25 14:28:07;;;;;;;800.38;347.25;;;;;;;;;;5046152;28;20040;-75
2022/01/25 14:30:35;;;;;;;795.35;345.48;;;;;;;;;;5044607;28;20725;-75
2022/01/25 14:33:03;;;;;;;796.17;355.90;;;;;;;;;;5046492;28;20033;-74
2022/01/25 14:35:33;;;;;;;799.72;356.80;;;;;;;;;;5061396;28;20290;-75
2022/01/25 14:38:00;;;;;;;797.72;351.38;;;;;;;;;;5062771;28;20100;-75
2022/01/25 14:40:26;;;;;;;794.50;353.83;;;;;;;;;;5057562;28;20074;-74
2022/01/25 14:42:52;;;;;;;800.08;360.98;;;;;;;;;;5054235;28;20381;-75
2022/01/25 14:45:20;;;;;;;796.72;353.77;;;;;;;;;;5034273;28;20025;-75
2022/01/25 14:47:53;;;;;;;800.15;355.88;;;;;;;;;;5064492;28;20108;-75
2022/01/25 14:50:21;;;;;;;794.33;349.60;;;;;;;;;;5046385;28;20028;-75
2022/01/25 14:53:01;;;;;;;798.95;347.75;;;;;;;;;;5062272;28;20036;-75
2022/01/25 14:55:29;;;;;;;794.22;342.30;;;;;;;;;;5062634;28;20473;-75
2022/01/25 14:58:22;;;;;;;789.30;337.85;;;;;;;;;;5064149;28;20028;-75
2022/01/25 15:00:55;;;;;;;793.65;332.92;;;;;;;;;;5056525;28;20443;-75
2022/01/25 15:03:23;;;;;;;789.78;336.02;;;;;;;;;;5058150;28;20024;-75
2022/01/25 15:05:49;;;;;;;796.38;336.15;;;;;;;;;;5038559;28;20029;-75
2022/01/25 15:08:16;;;;;;;797.70;340.55;;;;;;;;;;5040092;28;20032;-75
2022/01/25 15:10:46;;;;;;;794.40;335.17;;;;;;;;;;5059054;28;20040;-75
2022/01/25 15:13:13;;;;;;;794.60;331.40;;;;;;;;;;5060250;28;20557;-75
2022/01/25 15:15:54;;;;;;;801.17;347.05;;;;;;;;;;5061822;28;20055;-75
2022/01/25 15:18:21;;;;;;;795.65;337.20;;;;;;;;;;5040906;28;20037;-75
2022/01/25 15:20:47;;;;;;;797.38;339.33;;;;;;;;;;5038130;28;20024;-75
2022/01/25 15:23:13;;;;;;;792.53;333.17;;;;;;;;;;5031135;28;20040;-75
2022/01/25 15:25:39;;;;;;;792.20;337.48;;;;;;;;;;5057103;28;20313;-75
2022/01/25 15:28:08;;;;;;;793.35;332.15;;;;;;;;;;5056149;28;20036;-75
2022/01/25 15:30:34;;;;;;;793.58;326.60;;;;;;;;;;5058750;28;20133;-75
2022/01/25 15:33:00;;;;;;;793.10;337.83;;;;;;;;;;5043072;28;20064;-75
2022/01/25 15:35:27;;;;;;;797.72;344.23;;;;;;;;;;5035388;28;20037;-75
2022/01/25 15:37:59;;;;;;;792.15;332.02;;;;;;;;;;5044232;28;20040;-75
2022/01/25 15:40:30;;;;;;;797.08;337.17;;;;;;;;;;5038067;28;20468;-75
2022/01/25 15:42:56;;;;;;;797.10;339.17;;;;;;;;;;5033911;28;20029;-75
2022/01/25 15:45:27;;;;;;;795.88;336.90;;;;;;;;;;5061299;28;20540;-75
2022/01/25 15:47:53;;;;;;;799.05;342.75;;;;;;;;;;5041678;28;20086;-75
2022/01/25 15:50:21;;;;;;;801.17;345.17;;;;;;;;;;5055216;28;20036;-75
2022/01/25 15:52:47;;;;;;;796.17;340.55;;;;;;;;;;5042431;28;20032;-75
2022/01/25 15:55:13;;;;;;;799.63;347.42;;;;;;;;;;5059732;28;20389;-74
2022/01/25 15:57:39;;;;;;;809.78;357.25;;;;;;;;;;5041069;28;20314;-75
2022/01/25 16:00:05;;;;;;;800.08;346.50;;;;;;;;;;5056795;28;20085;-75
2022/01/25 16:02:31;;;;;;;798.33;352.30;;;;;;;;;;5058657;28;20480;-75